Time;durP1;ratioP1;P1;durP2;ratioP2;P2;SDS_P1;SDS_P2;PMS_P1;PMS_P2;Temp;Humidity;BMP_temperature;BMP_pressure;BME280_temperature;BME280_humidity;BME280_pressure;Samples;Min_cycle;Max_cycle;Signal;HPM_P1;HPM_P2
2021/03/02 00:00:46;;;;;;;57.73;47.23;;;;;;;4.08;73.27;102350.84;128252;1098;22505;-71
2021/03/02 00:03:15;;;;;;;55.03;47.80;;;;;;;4.09;72.85;102352.52;128242;1098;22534;-71
2021/03/02 00:05:47;;;;;;;55.08;46.33;;;;;;;4.08;72.74;102366.53;128234;1098;22531;-70
2021/03/02 00:08:15;;;;;;;54.75;47.13;;;;;;;4.07;72.71;102350.93;128219;1098;23087;-71
2021/03/02 00:10:44;;;;;;;60.28;48.70;;;;;;;4.08;72.46;102349.99;128192;1098;22625;-71
2021/03/02 00:13:15;;;;;;;56.40;50.30;;;;;;;4.05;72.34;102348.37;128314;1096;25070;-71
2021/03/02 00:15:43;;;;;;;60.90;51.68;;;;;;;4.06;72.77;102354.45;128288;1098;24701;-71
2021/03/02 00:18:13;;;;;;;63.30;50.98;;;;;;;4.06;72.50;102347.44;128285;1098;24298;-71
2021/03/02 00:20:46;;;;;;;68.10;56.35;;;;;;;4.04;73.20;102351.92;128309;1098;24368;-71
2021/03/02 00:23:27;;;;;;;70.62;56.45;;;;;;;4.03;73.00;102358.05;128250;1097;24587;-70
2021/03/02 00:25:58;;;;;;;71.77;58.90;;;;;;;4.01;73.28;102346.84;128339;1098;22534;-71
2021/03/02 00:28:27;;;;;;;68.10;56.65;;;;;;;4.00;72.98;102348.61;128309;1098;22648;-72
2021/03/02 00:30:55;;;;;;;66.25;53.42;;;;;;;3.98;73.41;102345.22;128206;1099;23231;-71
2021/03/02 00:33:24;;;;;;;63.90;54.90;;;;;;;3.95;73.13;102347.98;128233;1098;22497;-71
2021/03/02 00:35:52;;;;;;;62.67;53.38;;;;;;;3.94;73.45;102343.68;128341;1098;22502;-71
2021/03/02 00:38:21;;;;;;;71.40;56.05;;;;;;;3.96;73.41;102340.98;128187;1099;24689;-71
2021/03/02 00:40:49;;;;;;;66.17;56.30;;;;;;;3.98;72.71;102333.91;128239;1098;22860;-70
2021/03/02 00:43:18;;;;;;;65.05;56.25;;;;;;;3.94;72.93;102317.53;128260;1097;24845;-71
2021/03/02 00:45:46;;;;;;;62.85;54.80;;;;;;;3.91;72.97;102328.14;128600;1096;22509;-70
2021/03/02 00:48:15;;;;;;;61.27;54.63;;;;;;;3.92;73.45;102323.75;128304;1098;22783;-71
2021/03/02 00:50:44;;;;;;;69.42;55.92;;;;;;;3.92;72.68;102329.83;128582;1098;22526;-70
2021/03/02 00:53:13;;;;;;;62.70;54.77;;;;;;;3.91;72.94;102316.84;128220;1096;22718;-71
2021/03/02 00:55:42;;;;;;;67.90;58.20;;;;;;;3.90;73.28;102316.00;128307;1098;22540;-71
2021/03/02 00:58:11;;;;;;;67.00;58.13;;;;;;;3.89;73.46;102313.45;128264;1097;22497;-71
2021/03/02 01:00:39;;;;;;;69.97;59.27;;;;;;;3.86;73.32;102310.98;128305;1098;25215;-71
2021/03/02 01:03:10;;;;;;;74.15;63.58;;;;;;;3.86;72.75;102308.36;128464;1098;22499;-72
2021/03/02 01:05:39;;;;;;;77.50;67.87;;;;;;;3.83;72.73;102313.74;128250;1098;22487;-72
2021/03/02 01:08:11;;;;;;;78.55;67.72;;;;;;;3.82;73.23;102302.45;128264;1098;22530;-71
2021/03/02 01:10:41;;;;;;;80.28;68.20;;;;;;;3.81;73.31;102298.15;128217;1099;22515;-71
2021/03/02 01:13:16;;;;;;;75.20;65.12;;;;;;;3.76;73.52;102293.12;128395;1098;22623;-71
2021/03/02 01:15:44;;;;;;;70.80;63.20;;;;;;;3.71;73.50;102292.53;128303;1097;24414;-71
2021/03/02 01:18:13;;;;;;;74.85;63.35;;;;;;;3.66;73.53;102291.89;128381;1098;25081;-71
2021/03/02 01:20:42;;;;;;;76.25;66.42;;;;;;;3.64;73.76;102291.14;128281;1098;22519;-70
2021/03/02 01:23:10;;;;;;;76.00;64.00;;;;;;;3.63;73.86;102292.08;128143;1099;22506;-71
2021/03/02 01:25:39;;;;;;;73.60;65.20;;;;;;;3.61;73.18;102293.91;128575;1097;22536;-71
2021/03/02 01:28:07;;;;;;;79.60;66.67;;;;;;;3.58;73.25;102290.59;128233;1098;22612;-71
2021/03/02 01:30:36;;;;;;;75.97;65.92;;;;;;;3.53;73.63;102285.58;128265;1098;22496;-71
2021/03/02 01:33:05;;;;;;;76.80;65.70;;;;;;;3.49;73.61;102281.42;128307;1096;22975;-71
2021/03/02 01:35:34;;;;;;;71.77;61.37;;;;;;;3.43;72.98;102273.87;128261;1100;24355;-71
2021/03/02 01:38:04;;;;;;;71.62;61.33;;;;;;;3.33;73.73;102273.48;128265;1098;22947;-72
2021/03/02 01:40:33;;;;;;;73.50;65.30;;;;;;;3.25;74.07;102271.24;128243;1098;22489;-72
2021/03/02 01:43:01;;;;;;;74.25;61.90;;;;;;;3.20;73.18;102273.24;128250;1098;22497;-71
2021/03/02 01:45:29;;;;;;;71.77;60.17;;;;;;;3.14;74.32;102276.14;128271;1098;23053;-71
2021/03/02 01:47:57;;;;;;;73.00;61.92;;;;;;;3.14;73.94;102280.52;128277;1098;22524;-71
2021/03/02 01:50:26;;;;;;;75.62;63.35;;;;;;;3.14;74.49;102280.52;128271;1098;22609;-70
2021/03/02 01:52:54;;;;;;;71.82;62.25;;;;;;;3.10;73.53;102282.44;128238;1098;22716;-71
2021/03/02 01:55:22;;;;;;;76.90;64.58;;;;;;;3.06;73.75;102278.25;128243;1098;22453;-71
2021/03/02 01:57:50;;;;;;;101.20;73.15;;;;;;;3.04;74.36;102278.34;128266;1098;22497;-71
2021/03/02 02:00:29;;;;;;;99.25;73.25;;;;;;;3.06;74.55;102280.86;128566;1096;25109;-71
2021/03/02 02:03:25;;;;;;;78.45;63.45;;;;;;;3.02;74.18;102285.38;128229;1096;22750;-70
2021/03/02 02:06:07;;;;;;;81.12;64.75;;;;;;;2.97;74.72;102287.37;128183;1100;22603;-71
2021/03/02 02:09:02;;;;;;;81.85;62.93;;;;;;;3.02;74.48;102287.16;128223;1097;22576;-70
2021/03/02 02:12:05;;;;;;;75.42;61.63;;;;;;;3.08;75.44;102286.03;127972;1101;22641;-70
2021/03/02 02:15:00;;;;;;;79.60;62.90;;;;;;;3.09;74.42;102278.11;127956;1101;24481;-72
2021/03/02 02:17:56;;;;;;;87.20;69.15;;;;;;;3.12;75.32;102280.58;128185;1101;24781;-70
2021/03/02 02:20:34;;;;;;;84.58;64.70;;;;;;;3.13;75.32;102284.88;128230;1100;22537;-71
2021/03/02 02:23:14;;;;;;;81.05;66.50;;;;;;;3.11;74.67;102283.28;128185;1101;22582;-71
2021/03/02 02:26:32;;;;;;;78.28;65.90;;;;;;;3.08;75.05;102268.59;128167;1100;22499;-70
2021/03/02 02:29:02;;;;;;;86.00;68.78;;;;;;;3.06;75.00;102267.80;128190;1099;22588;-70
2021/03/02 02:31:32;;;;;;;88.65;69.42;;;;;;;3.10;75.58;102271.11;127970;1099;22489;-70
2021/03/02 02:34:02;;;;;;;89.63;71.03;;;;;;;3.16;75.91;102266.45;128257;1100;24642;-71
2021/03/02 02:36:32;;;;;;;83.95;64.65;;;;;;;3.17;74.78;102269.94;128253;1101;22520;-71
2021/03/02 02:39:01;;;;;;;86.92;68.17;;;;;;;3.14;75.12;102265.70;127945;1101;24591;-71
2021/03/02 02:41:31;;;;;;;87.20;67.87;;;;;;;3.17;74.90;102270.77;127985;1101;24613;-71
2021/03/02 02:44:21;;;;;;;95.60;72.75;;;;;;;3.19;74.82;102270.69;127996;1101;22507;-71
2021/03/02 02:46:54;;;;;;;97.85;74.70;;;;;;;3.17;74.89;102276.00;127977;1101;22507;-71
2021/03/02 02:49:23;;;;;;;89.10;67.47;;;;;;;3.14;74.57;102276.14;128196;1098;22499;-71
2021/03/02 02:51:52;;;;;;;88.67;68.12;;;;;;;3.15;75.23;102277.82;128284;1098;22588;-71
2021/03/02 02:54:21;;;;;;;97.53;72.67;;;;;;;3.19;75.73;102273.30;128243;1098;24584;-71
2021/03/02 02:56:52;;;;;;;96.02;73.40;;;;;;;3.21;74.97;102277.54;128266;1098;22496;-71
2021/03/02 02:59:25;;;;;;;98.52;74.47;;;;;;;3.22;75.66;102275.77;128352;1098;24625;-71
2021/03/02 03:01:59;;;;;;;98.67;74.33;;;;;;;3.24;75.38;102277.39;128225;1100;22515;-71
2021/03/02 03:04:54;;;;;;;90.12;69.25;;;;;;;3.23;75.51;102262.66;128327;1098;24584;-71
2021/03/02 03:07:37;;;;;;;87.80;66.22;;;;;;;3.15;74.62;102275.22;127984;1100;24670;-71
2021/03/02 03:10:25;;;;;;;89.67;66.42;;;;;;;3.06;74.91;102259.97;127978;1100;22474;-71
2021/03/02 03:13:00;;;;;;;77.58;57.85;;;;;;;3.03;74.72;102267.95;128225;1100;22536;-71
2021/03/02 03:15:30;;;;;;;77.53;58.38;;;;;;;3.00;75.38;102270.70;127962;1101;23230;-71
2021/03/02 03:17:59;;;;;;;82.53;59.33;;;;;;;3.03;75.05;102270.56;128007;1101;23259;-70
2021/03/02 03:20:29;;;;;;;88.30;64.77;;;;;;;3.04;75.91;102273.11;128232;1100;23438;-71
2021/03/02 03:22:59;;;;;;;85.97;62.15;;;;;;;3.09;75.10;102285.94;127957;1101;22575;-71
2021/03/02 03:25:28;;;;;;;93.00;65.85;;;;;;;3.11;75.10;102281.51;128226;1099;22532;-71
2021/03/02 03:28:01;;;;;;;95.10;66.90;;;;;;;3.12;75.69;102270.13;127919;1101;22521;-71
2021/03/02 03:30:32;;;;;;;93.07;67.32;;;;;;;3.13;75.80;102273.59;128225;1101;24613;-70
2021/03/02 03:33:07;;;;;;;86.20;63.80;;;;;;;3.10;75.02;102273.73;128175;1101;22512;-71
2021/03/02 03:35:39;;;;;;;85.67;62.75;;;;;;;3.05;75.83;102272.19;127983;1101;22527;-71
2021/03/02 03:38:08;;;;;;;95.05;66.00;;;;;;;3.03;75.74;102263.59;128233;1101;22495;-71
2021/03/02 03:40:37;;;;;;;89.55;61.58;;;;;;;3.05;75.42;102269.58;128028;1101;22488;-70
2021/03/02 03:43:05;;;;;;;91.30;64.45;;;;;;;3.11;76.27;102278.89;128188;1099;24574;-71
2021/03/02 03:45:34;;;;;;;98.70;68.62;;;;;;;3.06;75.54;102271.26;128493;1096;24600;-71
2021/03/02 03:48:02;;;;;;;93.70;67.58;;;;;;;3.02;75.33;102268.88;128187;1100;22508;-71
2021/03/02 03:50:31;;;;;;;90.70;64.60;;;;;;;2.98;75.76;102269.95;128223;1098;22496;-71
2021/03/02 03:53:02;;;;;;;80.85;58.95;;;;;;;2.93;75.93;102269.30;128290;1096;22486;-70
2021/03/02 03:55:36;;;;;;;80.67;58.42;;;;;;;2.88;75.25;102272.13;128309;1098;22532;-71
2021/03/02 03:58:06;;;;;;;86.12;60.80;;;;;;;2.89;76.32;102260.77;128292;1098;24581;-71
2021/03/02 04:00:35;;;;;;;93.90;64.37;;;;;;;2.92;76.15;102260.63;128252;1098;22531;-74
2021/03/02 04:03:05;;;;;;;96.55;70.10;;;;;;;2.91;75.93;102258.10;128638;1098;22498;-70
2021/03/02 04:05:36;;;;;;;96.20;69.42;;;;;;;2.89;76.09;102246.87;128263;1097;22892;-71
2021/03/02 04:08:06;;;;;;;92.12;64.80;;;;;;;2.87;76.45;102244.34;128267;1097;22498;-71
2021/03/02 04:10:35;;;;;;;94.47;66.70;;;;;;;2.87;76.29;102251.34;128286;1098;22615;-71
2021/03/02 04:13:13;;;;;;;94.63;66.20;;;;;;;2.86;76.37;102260.06;128209;1098;22612;-72
2021/03/02 04:15:44;;;;;;;92.67;64.90;;;;;;;2.80;76.63;102249.00;128296;1097;25106;-72
2021/03/02 04:18:16;;;;;;;92.42;63.28;;;;;;;2.81;76.73;102245.47;128204;1098;22497;-72
2021/03/02 04:20:45;;;;;;;;;;;;;;;2.77;75.97;102250.91;128256;1101;24603;-72
2021/03/02 04:23:14;;;;;;;90.75;62.88;;;;;;;2.73;76.11;102257.16;128265;1098;23170;-71
2021/03/02 04:25:42;;;;;;;88.37;61.18;;;;;;;2.70;75.97;102250.34;128359;1098;23412;-72
2021/03/02 04:28:11;;;;;;;83.85;58.25;;;;;;;2.71;76.92;102240.75;128305;1098;22502;-71
2021/03/02 04:30:39;;;;;;;78.42;57.20;;;;;;;2.70;76.38;102236.42;128281;1098;24606;-71
2021/03/02 04:33:11;;;;;;;82.72;55.58;;;;;;;2.71;77.16;102253.80;128237;1098;22501;-71
2021/03/02 04:35:40;;;;;;;76.33;52.70;;;;;;;2.73;77.16;102254.55;128254;1098;22479;-71
2021/03/02 04:38:09;;;;;;;77.53;55.25;;;;;;;2.76;76.50;102257.03;128265;1098;25563;-71
2021/03/02 04:40:37;;;;;;;76.97;56.20;;;;;;;2.78;77.04;102244.77;128252;1098;22528;-72
2021/03/02 04:43:06;;;;;;;79.47;56.65;;;;;;;2.74;76.95;102235.39;128187;1099;22491;-71
2021/03/02 04:45:51;;;;;;;77.70;55.12;;;;;;;2.70;76.27;102239.91;128254;1098;22532;-71
2021/03/02 04:48:20;;;;;;;79.45;57.73;;;;;;;2.75;76.91;102255.34;128284;1098;24860;-71
2021/03/02 04:50:48;;;;;;;81.42;57.43;;;;;;;2.77;76.64;102249.14;128273;1098;22530;-71
2021/03/02 04:53:17;;;;;;;92.57;64.47;;;;;;;2.77;77.11;102246.53;128249;1098;24290;-72
2021/03/02 04:55:45;;;;;;;80.20;56.85;;;;;;;2.75;76.94;102245.75;128263;1098;22534;-70
2021/03/02 04:58:13;;;;;;;76.12;55.85;;;;;;;2.75;77.22;102247.52;128571;1098;24587;-71
2021/03/02 05:00:41;;;;;;;78.07;56.20;;;;;;;2.77;76.87;102243.08;128299;1096;22526;-72
2021/03/02 05:03:10;;;;;;;76.40;54.35;;;;;;;2.76;76.99;102239.60;128314;1098;22536;-71
2021/03/02 05:05:39;;;;;;;77.20;56.13;;;;;;;2.73;76.58;102242.38;128203;1101;22503;-72
2021/03/02 05:08:08;;;;;;;87.30;59.13;;;;;;;2.70;76.24;102236.42;128555;1097;23329;-70
2021/03/02 05:10:36;;;;;;;84.30;61.48;;;;;;;2.67;76.31;102236.59;128303;1096;22537;-72
2021/03/02 05:13:04;;;;;;;86.75;62.70;;;;;;;2.63;77.15;102237.63;128278;1098;22475;-71
2021/03/02 05:15:33;;;;;;;79.65;56.85;;;;;;;2.59;76.49;102227.33;128265;1098;22495;-70
2021/03/02 05:18:01;;;;;;;73.33;51.40;;;;;;;2.61;77.15;102231.66;128213;1101;22555;-70
2021/03/02 05:20:29;;;;;;;83.25;54.83;;;;;;;2.64;77.39;102232.36;128216;1098;22487;-71
2021/03/02 05:22:57;;;;;;;75.03;52.90;;;;;;;2.63;77.10;102241.08;128218;1099;22505;-71
2021/03/02 05:25:26;;;;;;;75.90;56.40;;;;;;;2.67;76.78;102250.48;128285;1098;22622;-70
2021/03/02 05:27:54;;;;;;;74.45;54.58;;;;;;;2.68;77.34;102244.34;128296;1098;22475;-70
2021/03/02 05:30:23;;;;;;;79.67;57.55;;;;;;;2.70;77.40;102236.42;128309;1098;24406;-71
2021/03/02 05:32:52;;;;;;;80.45;57.05;;;;;;;2.68;77.47;102249.56;128283;1098;22481;-72
2021/03/02 05:35:20;;;;;;;77.03;56.45;;;;;;;2.68;77.52;102233.91;128322;1096;22496;-70
2021/03/02 05:37:49;;;;;;;75.83;53.02;;;;;;;2.64;77.43;102232.36;128570;1096;24275;-73
2021/03/02 05:40:17;;;;;;;84.65;56.98;;;;;;;2.61;77.57;102229.05;128303;1097;24590;-71
2021/03/02 05:42:45;;;;;;;86.47;60.08;;;;;;;2.60;76.83;102233.42;128216;1100;24607;-71
2021/03/02 05:45:15;;;;;;;88.78;64.32;;;;;;;2.59;77.67;102240.37;128291;1098;24606;-71
2021/03/02 05:47:43;;;;;;;91.57;63.15;;;;;;;2.62;77.17;102239.40;128357;1098;24584;-71
2021/03/02 05:50:13;;;;;;;85.70;61.13;;;;;;;2.67;78.04;102234.83;128294;1098;22482;-71
2021/03/02 05:52:43;;;;;;;86.60;60.30;;;;;;;2.68;77.06;102238.28;128225;1098;23897;-71
2021/03/02 05:55:12;;;;;;;106.03;74.67;;;;;;;2.66;77.07;102240.94;128223;1101;22499;-71
2021/03/02 05:57:41;;;;;;;110.92;73.20;;;;;;;2.63;77.20;102237.63;128276;1096;22528;-71
2021/03/02 06:00:10;;;;;;;99.28;70.05;;;;;;;2.66;77.92;102230.50;128582;1096;22509;-71
2021/03/02 06:02:39;;;;;;;106.10;72.65;;;;;;;2.68;77.48;102231.29;128441;1098;22528;-71
2021/03/02 06:05:09;;;;;;;93.37;64.65;;;;;;;2.74;77.80;102227.56;128268;1097;22504;-71
2021/03/02 06:07:37;;;;;;;100.60;63.35;;;;;;;2.76;77.29;102236.98;128332;1098;22500;-71
2021/03/02 06:10:06;;;;;;;95.83;63.65;;;;;;;2.80;78.14;102243.78;128199;1100;22502;-70
2021/03/02 06:12:55;;;;;;;103.22;68.33;;;;;;;2.79;77.67;102247.29;128267;1098;22519;-70
2021/03/02 06:15:27;;;;;;;93.82;62.75;;;;;;;2.80;78.00;102253.38;128575;1098;22513;-71
2021/03/02 06:18:13;;;;;;;91.30;61.80;;;;;;;2.82;77.31;102252.38;128308;1098;22497;-70
2021/03/02 06:20:42;;;;;;;84.03;56.70;;;;;;;2.75;77.27;102250.13;128381;1097;22496;-71
2021/03/02 06:23:26;;;;;;;78.80;55.52;;;;;;;2.76;77.34;102255.26;128347;1098;22530;-72
2021/03/02 06:26:00;;;;;;;80.15;53.08;;;;;;;2.80;77.76;102259.45;128223;1100;22590;-71
2021/03/02 06:28:44;;;;;;;72.60;52.70;;;;;;;2.80;78.08;102262.05;128286;1098;22476;-71
2021/03/02 06:31:45;;;;;;;103.45;57.20;;;;;;;2.85;77.41;102256.61;128355;1098;22529;-72
2021/03/02 06:34:17;;;;;;;80.17;56.48;;;;;;;2.89;77.51;102265.98;128303;1098;23413;-71
2021/03/02 06:36:54;;;;;;;84.85;57.08;;;;;;;2.92;77.82;102265.00;128506;1098;22484;-72
2021/03/02 06:39:31;;;;;;;78.45;55.15;;;;;;;2.96;77.89;102258.72;128507;1098;22481;-71
2021/03/02 06:42:22;;;;;;;79.20;56.85;;;;;;;2.95;78.14;102265.70;128541;1097;24350;-72
2021/03/02 06:44:52;;;;;;;77.67;56.83;;;;;;;2.95;78.11;102270.08;128313;1098;23455;-71
2021/03/02 06:47:30;;;;;;;79.90;56.02;;;;;;;2.97;78.03;102270.87;128491;1098;22492;-72
2021/03/02 06:50:01;;;;;;;80.80;57.13;;;;;;;2.97;77.22;102282.16;128472;1098;22493;-71
2021/03/02 06:52:38;;;;;;;86.42;60.60;;;;;;;2.96;77.36;102280.44;128404;1098;22531;-71
2021/03/02 06:55:16;;;;;;;85.12;60.85;;;;;;;2.99;78.00;102279.45;128304;1098;22511;-73
2021/03/02 06:57:49;;;;;;;90.32;61.37;;;;;;;3.01;77.94;102278.48;128546;1096;22483;-72
2021/03/02 07:00:32;;;;;;;87.62;63.02;;;;;;;3.07;77.76;102274.74;128317;1098;22570;-71
2021/03/02 07:03:00;;;;;;;84.28;59.23;;;;;;;3.06;77.29;102273.87;128306;1098;22504;-71
2021/03/02 07:05:28;;;;;;;83.17;58.68;;;;;;;3.12;77.63;102274.52;128293;1096;22526;-72
2021/03/02 07:07:59;;;;;;;86.20;60.12;;;;;;;3.18;77.38;102271.62;128307;1098;22502;-71
2021/03/02 07:10:30;;;;;;;86.05;60.73;;;;;;;3.21;77.31;102277.54;128330;1098;22490;-71
2021/03/02 07:12:59;;;;;;;89.60;61.35;;;;;;;3.21;77.96;102277.54;128300;1096;22505;-71
2021/03/02 07:15:35;;;;;;;;;;;;;;;3.24;77.36;102287.84;128421;1098;22570;-71
2021/03/02 07:18:06;;;;;;;97.33;63.87;;;;;;;3.26;77.50;102288.59;128313;1098;21295;-71
2021/03/02 07:20:35;;;;;;;83.07;60.73;;;;;;;3.34;78.18;102285.64;128306;1098;22492;-71
2021/03/02 07:23:05;;;;;;;78.22;58.23;;;;;;;3.42;77.73;102274.81;128366;1098;22484;-71
2021/03/02 07:25:36;;;;;;;81.82;59.25;;;;;;;3.54;77.65;102274.22;128566;1098;22499;-71
2021/03/02 07:28:06;;;;;;;79.22;57.40;;;;;;;3.63;77.73;102275.52;128370;1098;22498;-71
2021/03/02 07:30:35;;;;;;;80.42;58.65;;;;;;;3.65;77.79;102279.76;128586;1096;22491;-71
2021/03/02 07:33:06;;;;;;;82.25;59.15;;;;;;;3.65;77.28;102290.21;128365;1098;22472;-75
2021/03/02 07:35:34;;;;;;;81.57;58.43;;;;;;;3.71;77.44;102289.08;128334;1098;22496;-75
2021/03/02 07:38:19;;;;;;;80.70;59.83;;;;;;;3.74;77.24;102284.53;128319;1098;24581;-75
2021/03/02 07:40:54;;;;;;;80.70;58.08;;;;;;;3.79;77.72;102281.68;128698;1097;22507;-75
2021/03/02 07:43:23;;;;;;;81.08;60.65;;;;;;;3.85;77.35;102289.22;128361;1098;22502;-75
2021/03/02 07:45:53;;;;;;;80.32;58.02;;;;;;;3.90;77.46;102294.21;128296;1097;22495;-74
2021/03/02 07:48:37;;;;;;;81.53;59.13;;;;;;;3.96;76.50;102293.91;128630;1098;22493;-75
2021/03/02 07:51:16;;;;;;;68.67;52.33;;;;;;;3.98;76.29;102292.08;128589;1097;22508;-77
2021/03/02 07:53:47;;;;;;;72.40;52.85;;;;;;;4.05;77.15;102297.84;128352;1098;22642;-76
2021/03/02 07:56:23;;;;;;;68.87;52.83;;;;;;;4.12;77.01;102297.44;128308;1098;22535;-76
2021/03/02 07:59:10;;;;;;;72.85;53.10;;;;;;;4.20;76.33;102303.14;128630;1096;24832;-77
2021/03/02 08:01:38;;;;;;;70.25;53.80;;;;;;;4.25;76.82;102306.34;128329;1098;22619;-76
2021/03/02 08:04:16;;;;;;;70.97;53.40;;;;;;;4.31;75.99;102305.20;128351;1098;22502;-76
2021/03/02 08:06:50;;;;;;;82.10;59.70;;;;;;;4.42;76.63;102307.25;128570;1098;24601;-75
2021/03/02 08:09:21;;;;;;;72.08;57.13;;;;;;;4.48;76.31;102307.78;128298;1098;22488;-74
2021/03/02 08:11:50;;;;;;;71.42;53.08;;;;;;;4.51;75.41;102304.16;128559;1098;24574;-75
2021/03/02 08:14:18;;;;;;;72.22;55.48;;;;;;;4.56;75.48;102307.36;128336;1098;22658;-75
2021/03/02 08:16:56;;;;;;;83.15;58.90;;;;;;;4.66;76.06;102297.25;128631;1098;22645;-75
2021/03/02 08:19:38;;;;;;;72.13;57.40;;;;;;;4.72;75.83;102292.53;128398;1098;22498;-75
2021/03/02 08:22:23;;;;;;;76.07;57.35;;;;;;;4.79;75.56;102284.35;128587;1097;23167;-75
2021/03/02 08:25:24;;;;;;;78.12;64.90;;;;;;;4.85;74.97;102284.88;128626;1098;23423;-75
2021/03/02 08:27:59;;;;;;;66.02;54.35;;;;;;;4.91;75.26;102281.08;128354;1098;22495;-75
2021/03/02 08:30:37;;;;;;;69.70;55.65;;;;;;;4.97;75.04;102275.52;128321;1098;22496;-75
2021/03/02 08:33:19;;;;;;;66.28;55.50;;;;;;;5.03;74.79;102293.52;128481;1098;24603;-75
2021/03/02 08:35:48;;;;;;;69.95;61.30;;;;;;;5.07;74.45;102284.55;128643;1098;22520;-75
2021/03/02 08:38:20;;;;;;;79.25;62.08;;;;;;;5.18;74.72;102278.71;128326;1098;24596;-74
2021/03/02 08:40:51;;;;;;;103.15;82.20;;;;;;;5.27;74.43;102285.22;128337;1098;22486;-76
2021/03/02 08:43:24;;;;;;;72.90;59.73;;;;;;;5.35;74.24;102283.00;128382;1098;22496;-75
2021/03/02 08:45:55;;;;;;;75.10;59.08;;;;;;;5.46;74.07;102275.36;128380;1098;24616;-72
2021/03/02 08:48:41;;;;;;;73.20;59.40;;;;;;;5.71;74.66;102279.22;128360;1098;22620;-72
2021/03/02 08:51:10;;;;;;;72.58;56.53;;;;;;;5.93;73.95;102277.06;128611;1098;22510;-73
2021/03/02 08:53:48;;;;;;;71.85;55.10;;;;;;;6.05;73.04;102283.34;128281;1098;22501;-70
2021/03/02 08:56:25;;;;;;;66.97;55.43;;;;;;;6.15;73.26;102278.41;128317;1098;22491;-73
2021/03/02 08:59:12;;;;;;;65.22;55.98;;;;;;;6.30;72.76;102280.12;128254;1098;22478;-72
2021/03/02 09:01:42;;;;;;;68.10;57.25;;;;;;;6.39;72.67;102276.91;128514;1098;22946;-71
2021/03/02 09:04:17;;;;;;;68.55;56.63;;;;;;;6.51;71.90;102273.55;128399;1098;24285;-71
2021/03/02 09:06:48;;;;;;;71.25;59.27;;;;;;;6.68;71.94;102277.75;128352;1098;22497;-71
2021/03/02 09:09:19;;;;;;;74.20;60.28;;;;;;;6.89;72.30;102278.19;128344;1098;22799;-71
2021/03/02 09:11:53;;;;;;;86.50;76.77;;;;;;;7.16;71.49;102274.74;128364;1098;22584;-71
2021/03/02 09:14:33;;;;;;;104.87;89.22;;;;;;;7.31;70.29;102273.77;128291;1098;22491;-72
2021/03/02 09:17:06;;;;;;;90.72;80.10;;;;;;;7.36;70.27;102283.97;128327;1098;22496;-72
2021/03/02 09:19:41;;;;;;;77.60;66.22;;;;;;;7.47;70.05;102284.98;128355;1098;22495;-71
2021/03/02 09:22:20;;;;;;;71.30;62.08;;;;;;;7.65;69.89;102290.80;128313;1098;24571;-72
2021/03/02 09:24:56;;;;;;;71.37;61.60;;;;;;;7.80;68.79;102294.22;128530;1098;22505;-71
2021/03/02 09:27:36;;;;;;;66.50;57.23;;;;;;;7.88;68.17;102286.65;128350;1098;23171;-71
2021/03/02 09:30:07;;;;;;;68.17;59.13;;;;;;;7.98;68.38;102292.97;128356;1098;22492;-72
2021/03/02 09:32:36;;;;;;;65.78;58.35;;;;;;;8.40;69.83;102298.94;128333;1098;22485;-71
2021/03/02 09:35:10;;;;;;;68.70;57.23;;;;;;;8.99;69.42;102294.83;128287;1098;22508;-72
2021/03/02 09:37:39;;;;;;;63.20;55.20;;;;;;;9.41;67.91;102289.08;128378;1098;22525;-72
2021/03/02 09:40:11;;;;;;;65.37;56.77;;;;;;;9.84;67.39;102291.17;128324;1098;22625;-71
2021/03/02 09:42:44;;;;;;;61.50;54.42;;;;;;;10.20;65.94;102291.97;128285;1098;22530;-71
2021/03/02 09:45:16;;;;;;;58.78;52.17;;;;;;;10.47;64.11;102298.76;128367;1098;22502;-71
2021/03/02 09:47:48;;;;;;;58.08;51.85;;;;;;;10.67;63.65;102299.84;128347;1098;22524;-72
2021/03/02 09:50:19;;;;;;;62.75;55.35;;;;;;;11.06;63.47;102299.31;128337;1097;22627;-71
2021/03/02 09:52:58;;;;;;;51.77;46.33;;;;;;;11.41;61.51;102294.77;128270;1097;22583;-72
2021/03/02 09:55:28;;;;;;;55.35;49.35;;;;;;;11.67;60.94;102303.21;128561;1097;22524;-72
2021/03/02 09:58:08;;;;;;;52.40;46.77;;;;;;;11.82;59.64;102301.08;128423;1096;22630;-72
2021/03/02 10:00:45;;;;;;;52.60;46.95;;;;;;;12.08;59.12;102305.06;128521;1098;22579;-72
2021/03/02 10:03:17;;;;;;;52.62;46.95;;;;;;;12.37;59.19;102301.75;128471;1097;25076;-72
2021/03/02 10:05:56;;;;;;;43.98;39.45;;;;;;;12.60;57.68;102307.72;128338;1096;22507;-71
2021/03/02 10:08:38;;;;;;;46.98;41.85;;;;;;;12.86;57.62;102300.11;128474;1098;22493;-72
2021/03/02 10:11:12;;;;;;;48.90;43.80;;;;;;;13.25;57.26;102293.11;128457;1097;22477;-71
2021/03/02 10:13:59;;;;;;;45.45;40.52;;;;;;;13.67;56.84;102292.86;128284;1098;24288;-72
2021/03/02 10:16:35;;;;;;;49.67;44.30;;;;;;;13.99;55.54;102299.66;128308;1098;22498;-72
2021/03/02 10:19:23;;;;;;;48.23;43.17;;;;;;;14.42;54.59;102293.80;128260;1098;22519;-72
2021/03/02 10:21:59;;;;;;;45.65;40.85;;;;;;;15.02;53.84;102296.90;128305;1098;22613;-72
2021/03/02 10:24:30;;;;;;;50.03;44.90;;;;;;;15.63;52.24;102295.36;128308;1098;23074;-72
2021/03/02 10:27:08;;;;;;;45.48;40.85;;;;;;;16.22;51.33;102290.30;128272;1100;22536;-72
2021/03/02 10:29:36;;;;;;;45.00;40.52;;;;;;;16.82;50.76;102297.45;128238;1099;24417;-72
2021/03/02 10:32:05;;;;;;;45.12;40.60;;;;;;;17.46;49.34;102300.42;128254;1098;22529;-73
2021/03/02 10:34:36;;;;;;;44.95;40.50;;;;;;;18.13;47.38;102297.58;128286;1100;22487;-72
2021/03/02 10:37:08;;;;;;;49.95;44.80;;;;;;;18.66;46.13;102299.62;128328;1098;23053;-71
2021/03/02 10:39:40;;;;;;;45.87;41.23;;;;;;;18.92;44.29;102293.98;128331;1098;22519;-71
2021/03/02 10:42:09;;;;;;;46.37;41.50;;;;;;;19.26;44.57;102290.95;128231;1100;22497;-70
2021/03/02 10:44:38;;;;;;;44.27;39.67;;;;;;;19.64;43.02;102282.98;128207;1099;24606;-71
2021/03/02 10:47:07;;;;;;;40.30;36.30;;;;;;;20.02;42.31;102280.27;128326;1098;23720;-70
2021/03/02 10:49:35;;;;;;;42.33;37.85;;;;;;;20.57;41.66;102279.02;128306;1098;22604;-72
2021/03/02 10:52:05;;;;;;;41.20;37.08;;;;;;;20.94;40.59;102273.67;128325;1099;22469;-72
2021/03/02 10:54:33;;;;;;;43.87;39.42;;;;;;;21.07;38.99;102274.64;128355;1101;24368;-72
2021/03/02 10:57:02;;;;;;;41.85;37.73;;;;;;;21.15;39.38;102270.98;128364;1101;22536;-72
2021/03/02 10:59:31;;;;;;;43.42;38.88;;;;;;;21.34;37.79;102266.84;128419;1098;22979;-73
2021/03/02 11:01:59;;;;;;;41.13;36.80;;;;;;;21.50;37.35;102274.67;128376;1098;22528;-72
2021/03/02 11:04:27;;;;;;;43.98;39.48;;;;;;;21.79;37.05;102262.92;128425;1098;22941;-72
2021/03/02 11:06:56;;;;;;;39.85;35.98;;;;;;;21.96;36.64;102259.91;128403;1098;22497;-72
2021/03/02 11:09:25;;;;;;;43.98;39.58;;;;;;;22.16;36.31;102250.15;128367;1100;22462;-72
2021/03/02 11:11:53;;;;;;;39.50;35.40;;;;;;;22.23;35.44;102256.40;128469;1098;22516;-71
2021/03/02 11:14:22;;;;;;;41.13;37.17;;;;;;;22.31;35.47;102250.01;128406;1098;22516;-72
2021/03/02 11:16:50;;;;;;;41.15;36.05;;;;;;;21.88;34.42;102239.38;128390;1101;22519;-71
2021/03/02 11:19:18;;;;;;;40.28;35.92;;;;;;;20.90;34.97;102247.19;128409;1098;24357;-72
2021/03/02 11:21:47;;;;;;;40.48;36.08;;;;;;;19.66;35.84;102235.38;128415;1098;24568;-72
2021/03/02 11:24:15;;;;;;;42.25;37.85;;;;;;;18.52;37.59;102230.73;128426;1096;22709;-71
2021/03/02 11:26:43;;;;;;;39.95;35.73;;;;;;;17.37;37.79;102228.30;128420;1098;22478;-71
2021/03/02 11:29:11;;;;;;;49.55;39.03;;;;;;;16.49;39.51;102233.25;128443;1098;24593;-71
2021/03/02 11:31:39;;;;;;;40.98;36.70;;;;;;;15.58;40.34;102225.70;128476;1098;22508;-71
2021/03/02 11:34:08;;;;;;;41.40;36.85;;;;;;;14.81;41.79;102232.48;128451;1098;23367;-71